Historyczne dane pomiarowe

Dodano dane terminowe – wersja testowa.

Dane z okresu 1951-2019

Wersja bazy: 1.34 [2019-03-16, lista zmian], aktualizacja planowana na 2019-04-15

Dane meteo z obszaru Polski uzyskane na podstawie danych udostępnionych przez Instytut Meteorologii i Gospodarki Wodnej – Państwowy Instytut Badawczy.

 

Wybierz Datę:    

       

TemperaturaWilgotnośćWiatrCiśnienieOpadyŚniegCzas trwania zjawisk
 Stacja t tx tn tng RH VA  wxwx mslp ppp RRR   cm mm wxwxwxwxwxwxwx
1956-11-09 -0.9 3.2 -2.7 -4.5 67.8- 1.7 5.3---- 0.0------------
1956-11-08 0.3 2.9 -0.7 -1.1 83.8- 5.7 2.3---- 0.0------------
1956-11-07 1.2 2.4 0.3 -0.1 98.0- 8.0 1.0---- 2.3------------
1956-11-06 1.5 4.9 0.1 -1.2 91.0- 6.0 3.3---- 7.6------------
1956-11-05 4.8 8.8 3.2 3.9 78.8- 5.3 6.0---- 0.0------------
1956-11-04 2.9 5.2 -1.4 -3.5 87.8- 7.7 3.0---- 0.6------------
1956-11-03 0.3 5.7 -3.5 -8.4 81.3- 6.3 1.7---- 0.0------------
1956-11-02 0.9 4.3 -0.2 -0.6 89.5- 5.3 1.7---- 0.2------------
1956-11-01 -1.9 0.8 -7.8-10.9 81.8- 6.3 2.0---- 0.0------------
1956-10-31 -4.1 0.1 -6.4 -7.9 73.3- 1.7 4.0---- 0.0------------
1956-10-30 0.2 2.9 0.0 0.5 92.0- 8.0 6.7---- 0.1------------
1956-10-29 3.7 7.7 2.5 5.0 96.3- 8.0 3.3---- 10.8------------
1956-10-28 8.1 9.3 7.4 7.3 97.8- 8.0 5.0---- 1.2------------
1956-10-27 6.9 7.7 5.4 3.3 98.0- 8.0 8.0---- 13.2------------
1956-10-26 6.8 9.8 5.8 4.1 79.0- 5.3 2.3---- 3.4------------
1956-10-25 10.0 15.6 6.9 8.0 82.8- 4.7 3.7---- 0.0------------
1956-10-24 12.5 16.7 7.7 5.9 84.0- 7.0 2.3---- 0.0------------
1956-10-23 9.9 14.6 8.1 7.9 85.3- 4.0 4.0---- 0.0------------
1956-10-22 11.8 13.4 8.0 6.7 82.5- 8.0 3.7---- 0.0------------
1956-10-21 12.9 16.0 9.4 5.1 82.0- 6.0 2.7---- 0.0------------
1956-10-20 10.5 13.5 6.8 4.9 92.5- 7.3 2.0---- 0.0------------
1956-10-19 11.1 14.1 9.2 12.1 87.3- 7.7 3.3---- 0.0------------
1956-10-18 12.1 13.4 8.8 7.0 96.0- 8.0 1.7---- 5.0------------
1956-10-17 9.2 16.8 3.0 0.5 79.3- 3.0 2.0---- 0.0------------
1956-10-16 6.8 14.3 -0.5 -4.6 75.0- 0.0 2.7---- 0.0------------
1956-10-15 5.9 13.1 1.9 -2.1 81.8- 0.0 1.7---- 0.0------------
1956-10-14 9.3 13.5 6.9 8.0 78.0- 3.3 4.3---- 0.0------------
1956-10-13 11.3 12.8 8.1 6.3 74.5- 8.0 6.3---- 1.4------------
1956-10-12 9.5 14.0 5.1 2.5 84.0- 4.0 3.7---- 0.0------------
1956-10-11 8.3 12.1 0.9 -2.3 82.0- 4.7 2.7---- 0.0------------
1956-10-10 5.0 10.8 2.4 -1.1 74.0- 3.0 2.3---- 0.0------------
1956-10-09 6.6 9.9 4.2 2.0 96.8- 5.3 3.3---- 2.0------------
1956-10-08 4.9 8.8 0.8 -2.3 82.8- 7.3 2.0---- 1.6------------
1956-10-07 5.4 9.7 3.8 2.2 79.5- 2.3 4.3---- 0.0------------
1956-10-06 5.7 9.4 3.9 2.1 87.0- 4.7 2.7---- 0.0------------
1956-10-05 7.3 11.3 6.3 6.1 86.3- 5.0 3.0---- 1.3------------
1956-10-04 9.6 15.4 6.3 3.0 91.3- 5.0 2.7---- 0.4------------
1956-10-03 12.1 15.4 9.9 13.0 89.0- 4.3 5.0---- 0.0------------
1956-10-02 16.3 23.6 12.1 6.8 85.5- 6.3 3.0---- 21.3------------
1956-10-01 15.6 22.0 10.5 7.5 83.5- 4.3 2.7---- 0.0------------
1956-09-30 12.9 18.6 8.7 7.4 79.0- 4.7 3.0---- 0.0------------
1956-09-29 13.4 16.1 11.7 13.1 86.5- 5.0 4.3---- 0.0------------
1956-09-28 15.7 18.7 13.0 12.2 80.8- 6.7 5.0---- 0.1------------
1956-09-27 15.3 20.3 11.9 10.0 88.3- 7.7 2.7---- 3.9------------
1956-09-26 16.1 22.8 9.9 6.5 62.8- 0.3 3.7---- 0.0------------
1956-09-25 14.3 22.4 4.5 2.6 68.3- 0.0 3.7---- 0.0------------
1956-09-24 11.3 17.9 6.4 4.7 59.8- 0.0 8.3---- 0.0------------
1956-09-23 13.4 20.2 8.2 6.2 69.8- 0.0 7.0---- 0.0------------
1956-09-22 13.7 20.9 7.0 4.5 67.3- 0.0 5.3---- 0.0------------
1956-09-21 12.6 19.7 5.6 1.0 68.0- 0.0 2.0---- 0.0------------
1956-09-20 11.3 18.7 5.6 2.9 74.0- 1.3 2.0---- 0.0------------
1956-09-19 9.7 16.5 2.2 -1.1 76.8- 2.3 2.0---- 0.0------------
1956-09-18 9.3 16.1 2.8 -0.6 81.0- 3.7 2.0---- 0.0------------
1956-09-17 9.2 14.7 7.7 9.2 91.8- 5.3 3.3---- 4.3------------
1956-09-16 11.0 15.8 5.1 1.3 73.3- 7.3 3.7---- 0.3------------
1956-09-15 11.0 16.1 9.1 5.9 79.3- 4.0 4.7---- 0.0------------
1956-09-14 10.0 16.5 3.9 2.3 87.5- 0.7 2.0---- 0.0------------
1956-09-13 9.8 15.4 8.1 6.2 87.0- 6.3 4.7---- 5.4------------
1956-09-12 11.0 16.0 8.9 11.4 83.8- 3.7 6.3---- 0.6------------
1956-09-11 15.4 19.2 13.5 13.0 86.5- 8.0 2.3---- 7.0------------
1066.2 ms

 

Źródłem pochodzenia danych jest Instytut Meteorologii i Gospodarki Wodnej – Państwowy Instytut Badawczy. Dane Instytutu Meteorologii i Gospodarki Wodnej – Państwowego Instytutu Badawczego zostały przetworzone.

Dane źródłowe można odnaleźć na stronie https://dane.imgw.pl